createdAt,value
2016-10-15T00:00:20.790Z,0
2016-10-15T00:01:33.661Z,0
2016-10-15T00:02:47.117Z,0
2016-10-15T00:03:59.730Z,0
2016-10-15T00:05:13.210Z,0
2016-10-15T00:06:26.711Z,0
2016-10-15T00:07:39.709Z,0
2016-10-15T00:08:52.658Z,0
2016-10-15T00:10:04.153Z,0
2016-10-15T00:11:17.645Z,0
2016-10-15T00:12:30.148Z,0
2016-10-15T00:13:42.605Z,0
2016-10-15T00:14:55.137Z,0
2016-10-15T00:16:08.625Z,0
2016-10-15T00:17:20.573Z,0
2016-10-15T00:18:34.131Z,0
2016-10-15T00:19:47.203Z,0
2016-10-15T00:21:00.208Z,0
2016-10-15T00:22:13.695Z,0
2016-10-15T00:23:27.170Z,0
2016-10-15T00:24:40.108Z,0
2016-10-15T00:25:53.185Z,0
2016-10-15T00:27:06.138Z,0
2016-10-15T00:28:19.418Z,0
2016-10-15T00:29:31.779Z,0
2016-10-15T00:30:45.206Z,0
2016-10-15T00:31:58.634Z,0
2016-10-15T00:33:09.985Z,0
2016-10-15T00:34:22.362Z,0
2016-10-15T00:35:34.775Z,0
2016-10-15T00:36:48.350Z,0
2016-10-15T00:38:01.356Z,0
2016-10-15T00:39:13.774Z,0
2016-10-15T00:40:27.259Z,0
2016-10-15T00:41:40.471Z,0
2016-10-15T00:42:52.871Z,0
2016-10-15T00:44:05.289Z,0
2016-10-15T00:45:18.757Z,0
2016-10-15T00:46:31.985Z,0
2016-10-15T00:47:45.093Z,0
2016-10-15T00:48:58.081Z,0
2016-10-15T00:50:11.557Z,0
2016-10-15T00:51:25.006Z,0
2016-10-15T00:52:37.585Z,0
2016-10-15T00:53:49.555Z,0
2016-10-15T00:55:02.478Z,0
2016-10-15T00:56:15.492Z,0
2016-10-15T00:57:28.936Z,0
2016-10-15T00:58:40.971Z,0
2016-10-15T00:59:53.938Z,0
2016-10-15T01:01:06.899Z,0
2016-10-15T01:02:19.377Z,0
2016-10-15T01:03:32.421Z,0
2016-10-15T01:04:45.374Z,0
2016-10-15T01:05:56.711Z,0
2016-10-15T01:07:09.189Z,0
2016-10-15T01:08:21.088Z,0
2016-10-15T01:09:34.170Z,0
2016-10-15T01:10:46.578Z,0
2016-10-15T01:11:59.476Z,0
2016-10-15T01:13:12.458Z,0
2016-10-15T01:14:25.399Z,0
2016-10-15T01:15:38.383Z,0
2016-10-15T01:16:50.271Z,0
2016-10-15T01:18:03.716Z,0
2016-10-15T01:19:17.200Z,0
2016-10-15T01:20:30.281Z,0
2016-10-15T01:21:43.256Z,0
2016-10-15T01:22:55.667Z,0
2016-10-15T01:24:08.640Z,0
2016-10-15T01:25:22.057Z,0
2016-10-15T01:26:34.989Z,0
2016-10-15T01:27:47.967Z,0
2016-10-15T01:29:00.904Z,0
2016-10-15T01:30:13.852Z,0
2016-10-15T01:31:27.015Z,0
2016-10-15T01:32:39.974Z,0
2016-10-15T01:33:53.491Z,0
2016-10-15T01:35:06.445Z,0
2016-10-15T01:36:19.252Z,0
2016-10-15T01:37:32.756Z,0
2016-10-15T01:38:46.267Z,0
2016-10-15T01:39:59.727Z,0
2016-10-15T01:41:12.690Z,0
2016-10-15T01:42:26.347Z,0
2016-10-15T01:43:39.812Z,0
2016-10-15T01:44:52.249Z,0
2016-10-15T01:46:05.728Z,0
2016-10-15T01:47:19.301Z,0
2016-10-15T01:48:32.801Z,0
2016-10-15T01:49:45.752Z,0
2016-10-15T01:50:58.671Z,0
2016-10-15T01:52:12.235Z,0
2016-10-15T01:53:25.267Z,0
2016-10-15T01:54:38.230Z,0
2016-10-15T01:55:51.202Z,0
2016-10-15T01:57:04.651Z,0
2016-10-15T01:58:17.178Z,0
2016-10-15T01:59:30.623Z,0
2016-10-15T02:00:43.069Z,0
2016-10-15T02:01:56.052Z,0
2016-10-15T02:03:09.003Z,0
2016-10-15T02:04:22.614Z,0
2016-10-15T02:05:36.112Z,0
2016-10-15T02:06:49.625Z,0
2016-10-15T02:08:02.604Z,0
2016-10-15T02:09:15.615Z,0
2016-10-15T02:10:28.487Z,0
2016-10-15T02:11:40.350Z,0
2016-10-15T02:12:53.229Z,0
2016-10-15T02:14:06.715Z,0
2016-10-15T02:15:20.309Z,0
2016-10-15T02:16:33.219Z,0
2016-10-15T02:17:46.238Z,0
2016-10-15T02:18:58.715Z,0
2016-10-15T02:20:12.293Z,0
2016-10-15T02:21:25.747Z,0
2016-10-15T02:22:39.245Z,0
2016-10-15T02:23:52.235Z,0
2016-10-15T02:25:05.154Z,0
2016-10-15T02:26:17.225Z,0
2016-10-15T02:27:30.191Z,0
2016-10-15T02:28:43.650Z,0
2016-10-15T02:29:56.652Z,0
2016-10-15T02:31:09.753Z,0
2016-10-15T02:32:22.717Z,0
2016-10-15T02:33:36.232Z,0
2016-10-15T02:34:49.772Z,0
2016-10-15T02:36:02.169Z,0
2016-10-15T02:37:15.733Z,0
2016-10-15T02:38:29.234Z,0
2016-10-15T02:39:42.735Z,0
2016-10-15T02:40:56.130Z,0
2016-10-15T02:42:08.530Z,0
2016-10-15T02:43:20.996Z,0
2016-10-15T02:44:33.453Z,0
2016-10-15T02:45:46.953Z,0
2016-10-15T02:47:00.457Z,0
2016-10-15T02:48:14.008Z,0
2016-10-15T02:49:27.702Z,0
2016-10-15T02:50:40.207Z,0
2016-10-15T02:51:53.192Z,0
2016-10-15T02:53:06.388Z,0
2016-10-15T02:54:18.852Z,0
2016-10-15T02:55:31.270Z,0
2016-10-15T02:56:44.789Z,0
2016-10-15T02:57:58.233Z,0
2016-10-15T02:59:10.168Z,0
2016-10-15T03:00:23.669Z,0
2016-10-15T03:01:36.634Z,0
2016-10-15T03:02:50.132Z,0
2016-10-15T03:04:03.172Z,0
2016-10-15T03:05:16.652Z,0
2016-10-15T03:06:29.089Z,0
2016-10-15T03:07:41.970Z,0
2016-10-15T03:08:54.423Z,0
2016-10-15T03:10:07.494Z,0
2016-10-15T03:11:20.970Z,0
2016-10-15T03:12:33.860Z,0
2016-10-15T03:13:46.777Z,0
2016-10-15T03:15:01.239Z,0
2016-10-15T03:16:15.019Z,0
2016-10-15T03:17:28.035Z,0
2016-10-15T03:18:41.521Z,0
2016-10-15T03:19:53.945Z,0
2016-10-15T03:21:05.953Z,0
2016-10-15T03:22:19.452Z,0
2016-10-15T03:23:32.377Z,0
2016-10-15T03:24:45.871Z,0
2016-10-15T03:25:58.898Z,0
2016-10-15T03:27:11.344Z,0
2016-10-15T03:28:23.993Z,0
2016-10-15T03:29:36.906Z,0
2016-10-15T03:30:49.869Z,0
2016-10-15T03:32:02.960Z,0
2016-10-15T03:33:15.931Z,0
2016-10-15T03:34:28.408Z,0
2016-10-15T03:35:41.893Z,0
2016-10-15T03:36:54.993Z,0
2016-10-15T03:38:08.488Z,0
2016-10-15T03:39:20.921Z,0
2016-10-15T03:40:34.397Z,0
2016-10-15T03:41:46.835Z,0
2016-10-15T03:42:59.891Z,0
2016-10-15T03:44:12.875Z,0
2016-10-15T03:45:25.845Z,0
2016-10-15T03:46:39.312Z,0
2016-10-15T03:47:51.947Z,0
2016-10-15T03:49:04.963Z,0
2016-10-15T03:50:17.920Z,0
2016-10-15T03:51:30.869Z,0
2016-10-15T03:52:44.399Z,0
2016-10-15T03:53:57.457Z,0
2016-10-15T03:55:10.437Z,0
2016-10-15T03:56:23.966Z,0
2016-10-15T03:57:35.852Z,0
2016-10-15T03:58:48.775Z,0
2016-10-15T04:00:02.256Z,0
2016-10-15T04:01:15.146Z,0
2016-10-15T04:02:28.123Z,0
2016-10-15T04:03:41.569Z,0
2016-10-15T04:04:55.199Z,0
2016-10-15T04:06:07.083Z,0
2016-10-15T04:07:20.546Z,0
2016-10-15T04:08:33.991Z,0
2016-10-15T04:09:46.470Z,0
2016-10-15T04:10:58.841Z,0
2016-10-15T04:12:11.854Z,0
2016-10-15T04:13:25.379Z,0
2016-10-15T04:14:38.950Z,0
2016-10-15T04:15:51.485Z,0
2016-10-15T04:17:05.012Z,0
2016-10-15T04:18:18.462Z,0
2016-10-15T04:19:31.975Z,0
2016-10-15T04:20:44.871Z,0
2016-10-15T04:21:58.337Z,0
2016-10-15T04:23:11.820Z,0
2016-10-15T04:24:25.292Z,0
2016-10-15T04:25:38.202Z,0
2016-10-15T04:26:51.799Z,0
2016-10-15T04:28:04.192Z,0
2016-10-15T04:29:17.704Z,0
2016-10-15T04:30:31.168Z,0
2016-10-15T04:31:43.091Z,0
2016-10-15T04:32:55.538Z,0
2016-10-15T04:34:08.528Z,0
2016-10-15T04:35:20.908Z,0
2016-10-15T04:36:34.432Z,0
2016-10-15T04:37:46.977Z,0
2016-10-15T04:38:59.913Z,0
2016-10-15T04:40:12.812Z,0
2016-10-15T04:41:25.239Z,0
2016-10-15T04:42:38.296Z,0
2016-10-15T04:43:51.253Z,0
2016-10-15T04:45:04.220Z,0
2016-10-15T04:46:17.168Z,0
2016-10-15T04:47:29.661Z,0
2016-10-15T04:48:42.680Z,0
2016-10-15T04:49:55.646Z,0
2016-10-15T04:51:07.539Z,0
2016-10-15T04:52:21.268Z,0
2016-10-15T04:53:34.202Z,0
2016-10-15T04:54:47.179Z,0
2016-10-15T04:55:59.657Z,0
2016-10-15T04:57:12.664Z,0
2016-10-15T04:58:25.083Z,0
2016-10-15T04:59:38.632Z,0
2016-10-15T05:00:51.024Z,0
2016-10-15T05:02:04.057Z,0
2016-10-15T05:03:17.508Z,0
2016-10-15T05:04:31.019Z,0
2016-10-15T05:05:43.999Z,0
2016-10-15T05:06:56.458Z,0
2016-10-15T05:08:09.945Z,0
2016-10-15T05:09:23.367Z,0
2016-10-15T05:10:37.014Z,0
2016-10-15T05:11:50.027Z,0
2016-10-15T05:13:02.444Z,0
2016-10-15T05:14:14.327Z,0
2016-10-15T05:15:27.810Z,0
2016-10-15T05:16:40.338Z,0
2016-10-15T05:17:52.268Z,0
2016-10-15T05:19:05.928Z,0
2016-10-15T05:20:18.881Z,0
2016-10-15T05:21:31.401Z,0
2016-10-15T05:22:44.844Z,0
2016-10-15T05:23:57.736Z,0
2016-10-15T05:25:10.680Z,0
2016-10-15T05:26:23.175Z,0
2016-10-15T05:27:36.654Z,0
2016-10-15T05:28:49.583Z,0
2016-10-15T05:30:02.493Z,0
2016-10-15T05:31:14.940Z,0
2016-10-15T05:32:28.003Z,0
2016-10-15T05:33:40.941Z,0
2016-10-15T05:34:54.364Z,0
2016-10-15T05:36:07.297Z,0
2016-10-15T05:37:20.906Z,0
2016-10-15T05:38:34.470Z,0
2016-10-15T05:39:46.959Z,0
2016-10-15T05:40:59.923Z,0
2016-10-15T05:42:13.459Z,0
2016-10-15T05:43:26.037Z,0
2016-10-15T05:44:39.101Z,0
2016-10-15T05:45:51.582Z,0
2016-10-15T05:47:04.036Z,0
2016-10-15T05:48:16.967Z,0
2016-10-15T05:49:29.377Z,0
2016-10-15T05:50:42.845Z,0
2016-10-15T05:51:56.278Z,0
2016-10-15T05:53:09.275Z,0
2016-10-15T05:54:22.866Z,0
2016-10-15T05:55:35.801Z,0
2016-10-15T05:56:48.737Z,0
2016-10-15T05:58:01.688Z,0
2016-10-15T05:59:14.061Z,0
2016-10-15T06:00:27.030Z,0
2016-10-15T06:01:40.505Z,0
2016-10-15T06:02:53.533Z,0
2016-10-15T06:04:07.100Z,0
2016-10-15T06:05:20.179Z,0
2016-10-15T06:06:32.562Z,0
2016-10-15T06:07:45.008Z,0
2016-10-15T06:08:58.511Z,0
2016-10-15T06:10:16.242Z,0
2016-10-15T06:11:29.846Z,0
2016-10-15T06:12:42.917Z,0
2016-10-15T06:13:55.396Z,0
2016-10-15T06:15:07.830Z,0
2016-10-15T06:16:20.743Z,0
2016-10-15T06:17:32.178Z,0
2016-10-15T06:18:45.426Z,0
2016-10-15T06:19:57.966Z,0
2016-10-15T06:21:10.714Z,0
2016-10-15T06:22:23.727Z,0
2016-10-15T06:23:37.221Z,0
2016-10-15T06:24:50.168Z,0
2016-10-15T06:26:02.712Z,0
2016-10-15T06:27:15.754Z,0
2016-10-15T06:28:28.252Z,0
2016-10-15T06:29:41.740Z,0
2016-10-15T06:30:55.220Z,0
2016-10-15T06:32:08.169Z,0
2016-10-15T06:33:20.300Z,0
2016-10-15T06:34:32.761Z,0
2016-10-15T06:35:45.675Z,0
2016-10-15T06:36:58.193Z,0
2016-10-15T06:38:11.145Z,0
2016-10-15T06:39:23.627Z,0
2016-10-15T06:40:37.099Z,0
2016-10-15T06:41:49.516Z,0
2016-10-15T06:44:18.239Z,0
2016-10-15T06:45:31.225Z,0
2016-10-15T06:46:43.697Z,0
2016-10-15T06:47:57.260Z,0
2016-10-15T06:49:09.130Z,0
2016-10-15T06:50:21.077Z,0
2016-10-15T06:51:34.545Z,0
2016-10-15T06:52:48.109Z,0
2016-10-15T06:54:01.711Z,0
2016-10-15T06:55:14.638Z,0
2016-10-15T06:56:28.171Z,0
2016-10-15T06:57:41.178Z,0
2016-10-15T06:58:54.225Z,0
2016-10-15T07:00:10.122Z,0
2016-10-15T07:01:24.182Z,0
2016-10-15T07:02:36.644Z,0
2016-10-15T07:03:49.210Z,0
2016-10-15T07:05:02.191Z,0
2016-10-15T07:06:14.595Z,0
2016-10-15T07:07:28.286Z,0
2016-10-15T07:08:41.248Z,0
2016-10-15T07:09:54.358Z,0
2016-10-15T07:11:07.387Z,0
2016-10-15T07:12:19.824Z,0
2016-10-15T07:13:32.761Z,0
2016-10-15T07:14:45.332Z,0
2016-10-15T07:15:57.795Z,0
2016-10-15T07:17:11.292Z,0
2016-10-15T07:18:24.776Z,0
2016-10-15T07:19:38.263Z,0
2016-10-15T07:20:50.748Z,0
2016-10-15T07:22:02.928Z,0
2016-10-15T07:23:16.425Z,0
2016-10-15T07:24:29.843Z,0
2016-10-15T07:25:41.771Z,0
2016-10-15T07:26:54.244Z,0
2016-10-15T07:28:06.718Z,0
2016-10-15T07:29:19.626Z,0
2016-10-15T07:30:33.129Z,0
2016-10-15T07:31:46.146Z,0
2016-10-15T07:32:59.682Z,0
2016-10-15T07:34:13.200Z,0
2016-10-15T07:35:26.120Z,0
2016-10-15T07:36:39.698Z,0
2016-10-15T07:37:53.135Z,0
2016-10-15T07:39:05.088Z,0
2016-10-15T07:40:16.993Z,0
2016-10-15T07:41:30.006Z,0
2016-10-15T07:42:42.034Z,0
2016-10-15T07:43:55.551Z,0
2016-10-15T07:45:09.055Z,0
2016-10-15T07:46:22.001Z,0
2016-10-15T07:47:35.555Z,0
2016-10-15T07:48:49.064Z,0
2016-10-15T07:50:02.520Z,0
2016-10-15T07:51:15.503Z,0
2016-10-15T07:52:27.489Z,0
2016-10-15T07:53:40.013Z,0
2016-10-15T07:54:52.454Z,0
2016-10-15T07:56:05.410Z,0
2016-10-15T07:57:18.897Z,0
2016-10-15T07:58:31.331Z,0
2016-10-15T07:59:44.783Z,0
2016-10-15T08:00:57.705Z,0
2016-10-15T08:02:11.166Z,0
2016-10-15T08:03:24.677Z,0
2016-10-15T08:04:37.214Z,0
2016-10-15T08:05:50.209Z,0
2016-10-15T08:07:03.784Z,0
2016-10-15T08:08:16.792Z,0
2016-10-15T08:09:29.274Z,0
2016-10-15T08:10:42.301Z,0
2016-10-15T08:11:55.917Z,0
2016-10-15T08:13:09.398Z,0
2016-10-15T08:14:22.824Z,0
2016-10-15T08:15:36.521Z,0
2016-10-15T08:16:50.027Z,0
2016-10-15T08:18:03.024Z,0
2016-10-15T08:19:16.528Z,0
2016-10-15T08:20:30.089Z,0
2016-10-15T08:21:42.556Z,0
2016-10-15T08:22:55.966Z,0
2016-10-15T08:24:08.865Z,0
2016-10-15T08:25:22.318Z,0
2016-10-15T08:26:34.893Z,0
2016-10-15T08:27:48.360Z,0
2016-10-15T08:29:01.291Z,0
2016-10-15T08:30:12.679Z,0
2016-10-15T08:31:25.206Z,0
2016-10-15T08:32:38.182Z,0
2016-10-15T08:33:50.112Z,0
2016-10-15T08:35:03.573Z,0
2016-10-15T08:36:16.026Z,0
2016-10-15T08:37:28.561Z,0
2016-10-15T08:38:40.506Z,0
2016-10-15T08:39:52.935Z,0
2016-10-15T08:41:06.490Z,0
2016-10-15T08:42:19.966Z,0
2016-10-15T08:43:32.439Z,0
2016-10-15T08:44:45.426Z,0
2016-10-15T08:45:58.375Z,0
2016-10-15T08:47:11.309Z,0
2016-10-15T08:48:24.924Z,0
2016-10-15T08:49:37.991Z,0
2016-10-15T08:50:51.445Z,5
2016-10-15T08:52:05.015Z,5
2016-10-15T08:53:18.024Z,5
2016-10-15T08:54:30.942Z,5
2016-10-15T08:55:43.396Z,5
2016-10-15T08:56:56.875Z,5
2016-10-15T08:58:09.855Z,5
2016-10-15T08:59:22.474Z,5
2016-10-15T09:00:34.950Z,10
2016-10-15T09:01:47.863Z,10
2016-10-15T09:03:00.345Z,10
2016-10-15T09:04:13.800Z,10
2016-10-15T09:05:27.273Z,10
2016-10-15T09:06:40.870Z,15
2016-10-15T09:07:54.354Z,15
2016-10-15T09:09:07.898Z,15
2016-10-15T09:10:20.996Z,15
2016-10-15T09:11:34.508Z,15
2016-10-15T09:12:46.953Z,15
2016-10-15T09:13:59.406Z,15
2016-10-15T09:15:11.404Z,15
2016-10-15T09:16:24.410Z,15
2016-10-15T09:17:36.337Z,15
2016-10-15T09:18:49.326Z,20
2016-10-15T09:20:02.843Z,20
2016-10-15T09:21:16.448Z,20
2016-10-15T09:22:29.885Z,20
2016-10-15T09:23:43.279Z,25
2016-10-15T09:24:55.782Z,25
2016-10-15T09:26:09.410Z,25
2016-10-15T09:27:21.323Z,25
2016-10-15T09:28:34.766Z,30
2016-10-15T09:29:47.747Z,30
2016-10-15T09:31:00.675Z,30
2016-10-15T09:32:13.180Z,30
2016-10-15T09:33:25.605Z,30
2016-10-15T09:34:38.561Z,35
2016-10-15T09:35:51.537Z,35
2016-10-15T09:37:04.144Z,40
2016-10-15T09:38:16.621Z,45
2016-10-15T09:39:29.574Z,50
2016-10-15T09:40:43.058Z,55
2016-10-15T09:41:56.578Z,65
2016-10-15T09:43:09.706Z,75
2016-10-15T09:44:22.653Z,75
2016-10-15T09:45:36.131Z,75
2016-10-15T09:46:49.221Z,80
2016-10-15T09:48:02.733Z,85
2016-10-15T09:49:15.723Z,80
2016-10-15T09:50:28.721Z,85
2016-10-15T09:51:41.731Z,85
2016-10-15T09:52:54.111Z,85
2016-10-15T09:54:06.835Z,85
2016-10-15T09:55:19.298Z,75
2016-10-15T09:56:32.746Z,80
2016-10-15T09:57:45.783Z,80
2016-10-15T09:58:58.727Z,75
2016-10-15T10:00:11.126Z,90
2016-10-15T10:01:24.159Z,95
2016-10-15T10:02:37.113Z,95
2016-10-15T10:03:50.602Z,95
2016-10-15T10:05:03.691Z,90
2016-10-15T10:06:16.639Z,90
2016-10-15T10:07:30.108Z,85
2016-10-15T10:08:43.108Z,85
2016-10-15T10:09:56.231Z,85
2016-10-15T10:11:09.766Z,85
2016-10-15T10:12:21.697Z,85
2016-10-15T10:13:35.162Z,85
2016-10-15T10:14:47.622Z,80
2016-10-15T10:15:59.608Z,80
2016-10-15T10:17:12.052Z,80
2016-10-15T10:18:25.031Z,80
2016-10-15T10:19:37.959Z,80
2016-10-15T10:20:51.457Z,85
2016-10-15T10:22:04.944Z,80
2016-10-15T10:23:17.958Z,75
2016-10-15T10:24:30.905Z,80
2016-10-15T10:25:44.010Z,85
2016-10-15T10:26:57.051Z,90
2016-10-15T10:28:10.046Z,90
2016-10-15T10:29:22.976Z,95
2016-10-15T10:30:35.952Z,95
2016-10-15T10:31:48.956Z,95
2016-10-15T10:33:02.465Z,95
2016-10-15T10:34:15.442Z,95
2016-10-15T10:35:28.421Z,100
2016-10-15T10:36:41.921Z,110
2016-10-15T10:37:54.931Z,105
2016-10-15T10:39:07.877Z,100
2016-10-15T10:40:20.807Z,95
2016-10-15T10:41:34.331Z,90
2016-10-15T10:42:47.465Z,90
2016-10-15T10:44:00.430Z,95
2016-10-15T10:45:13.331Z,95
2016-10-15T10:46:26.236Z,105
2016-10-15T10:47:39.235Z,95
2016-10-15T10:48:52.992Z,95
2016-10-15T10:50:06.512Z,95
2016-10-15T10:51:19.599Z,100
2016-10-15T10:52:32.579Z,100
2016-10-15T10:53:46.052Z,100
2016-10-15T10:54:58.709Z,100
2016-10-15T10:56:12.135Z,100
2016-10-15T10:57:25.088Z,110
2016-10-15T10:58:37.555Z,120
2016-10-15T10:59:50.651Z,120
2016-10-15T11:01:04.154Z,120
2016-10-15T11:02:17.147Z,120
2016-10-15T11:03:30.125Z,115
2016-10-15T11:04:43.240Z,110
2016-10-15T11:05:56.252Z,115
2016-10-15T11:07:09.797Z,120
2016-10-15T11:08:22.787Z,135
2016-10-15T11:09:36.285Z,145
2016-10-15T11:10:49.808Z,150
2016-10-15T11:12:02.790Z,140
2016-10-15T11:13:15.168Z,130
2016-10-15T11:14:28.696Z,125
2016-10-15T11:15:41.737Z,125
2016-10-15T11:16:55.301Z,130
2016-10-15T11:18:08.273Z,130
2016-10-15T11:19:21.216Z,125
2016-10-15T11:20:34.149Z,125
2016-10-15T11:21:47.774Z,130
2016-10-15T11:23:01.278Z,130
2016-10-15T11:24:14.329Z,130
2016-10-15T11:25:27.826Z,130
2016-10-15T11:26:40.825Z,140
2016-10-15T11:27:54.316Z,140
2016-10-15T11:29:06.779Z,135
2016-10-15T11:30:19.439Z,140
2016-10-15T11:31:32.433Z,140
2016-10-15T11:32:44.488Z,140
2016-10-15T11:33:57.397Z,140
2016-10-15T11:35:10.340Z,135
2016-10-15T11:36:23.831Z,135
2016-10-15T11:37:36.261Z,145
2016-10-15T11:38:49.799Z,150
2016-10-15T11:40:03.062Z,155
2016-10-15T11:41:16.559Z,150
2016-10-15T11:42:30.267Z,150
2016-10-15T11:43:43.846Z,155
2016-10-15T11:44:55.292Z,160
2016-10-15T11:46:08.232Z,165
2016-10-15T11:47:21.726Z,170
2016-10-15T11:48:34.675Z,170
2016-10-15T11:49:47.114Z,155
2016-10-15T11:50:59.033Z,155
2016-10-15T11:52:11.418Z,145
2016-10-15T11:53:24.470Z,150
2016-10-15T11:54:37.032Z,160
2016-10-15T11:55:50.006Z,155
2016-10-15T11:57:03.487Z,150
2016-10-15T11:58:15.936Z,140
2016-10-15T11:59:28.392Z,130
2016-10-15T12:00:40.853Z,130
2016-10-15T12:01:53.840Z,135
2016-10-15T12:03:05.734Z,100
2016-10-15T12:04:18.716Z,145
2016-10-15T12:05:32.293Z,145
2016-10-15T12:06:45.726Z,150
2016-10-15T12:07:59.250Z,160
2016-10-15T12:09:12.253Z,160
2016-10-15T12:10:24.722Z,160
2016-10-15T12:11:36.656Z,155
2016-10-15T12:12:49.600Z,155
2016-10-15T12:14:03.080Z,155
2016-10-15T12:15:16.020Z,155
2016-10-15T12:16:28.594Z,165
2016-10-15T12:17:41.457Z,175
2016-10-15T12:18:54.483Z,180
2016-10-15T12:20:07.480Z,180
2016-10-15T12:21:20.492Z,180
2016-10-15T12:22:33.445Z,180
2016-10-15T12:23:46.358Z,190
2016-10-15T12:24:59.356Z,195
2016-10-15T12:26:12.322Z,200
2016-10-15T12:27:25.377Z,200
2016-10-15T12:28:38.444Z,200
2016-10-15T12:29:51.448Z,205
2016-10-15T12:31:04.931Z,200
2016-10-15T12:32:18.567Z,190
2016-10-15T12:33:32.076Z,190
2016-10-15T12:34:45.562Z,205
2016-10-15T12:35:58.164Z,225
2016-10-15T12:37:11.627Z,240
2016-10-15T12:38:24.695Z,245
2016-10-15T12:39:37.110Z,240
2016-10-15T12:40:50.089Z,220
2016-10-15T12:42:02.451Z,200
2016-10-15T12:43:15.987Z,190
2016-10-15T12:44:29.511Z,180
2016-10-15T12:45:43.022Z,190
2016-10-15T12:46:56.480Z,180
2016-10-15T12:48:10.027Z,195
2016-10-15T12:49:23.145Z,195
2016-10-15T12:50:36.137Z,190
2016-10-15T12:51:48.564Z,180
2016-10-15T12:53:01.188Z,175
2016-10-15T12:54:14.358Z,165
2016-10-15T12:55:27.835Z,175
2016-10-15T12:56:40.821Z,185
2016-10-15T12:57:53.733Z,190
2016-10-15T12:59:06.139Z,215
2016-10-15T13:00:18.687Z,215
2016-10-15T13:01:31.677Z,225
2016-10-15T13:02:44.086Z,225
2016-10-15T13:03:57.612Z,225
2016-10-15T13:05:10.173Z,190
2016-10-15T13:06:23.693Z,220
2016-10-15T13:07:37.204Z,225
2016-10-15T13:08:49.636Z,225
2016-10-15T13:10:03.183Z,225
2016-10-15T13:11:15.717Z,225
2016-10-15T13:12:28.658Z,235
2016-10-15T13:13:41.122Z,245
2016-10-15T13:14:54.670Z,245
2016-10-15T13:16:08.452Z,230
2016-10-15T13:17:21.378Z,205
2016-10-15T13:18:33.831Z,195
2016-10-15T13:19:46.264Z,225
2016-10-15T13:20:58.712Z,230
2016-10-15T13:22:12.291Z,230
2016-10-15T13:23:25.384Z,210
2016-10-15T13:24:38.308Z,200
2016-10-15T13:25:50.919Z,185
2016-10-15T13:27:04.004Z,195
2016-10-15T13:28:17.688Z,220
2016-10-15T13:29:30.743Z,205
2016-10-15T13:30:44.201Z,195
2016-10-15T13:31:57.687Z,200
2016-10-15T13:33:10.718Z,220
2016-10-15T13:34:23.723Z,175
2016-10-15T13:35:36.711Z,160
2016-10-15T13:36:50.230Z,225
2016-10-15T13:38:03.142Z,230
2016-10-15T13:39:16.020Z,240
2016-10-15T13:40:29.467Z,230
2016-10-15T13:41:42.496Z,225
2016-10-15T13:42:56.102Z,235
2016-10-15T13:44:09.198Z,230
2016-10-15T13:45:22.677Z,225
2016-10-15T13:46:35.202Z,215
2016-10-15T13:47:48.169Z,230
2016-10-15T13:49:01.625Z,240
2016-10-15T13:50:15.127Z,245
2016-10-15T13:51:28.067Z,250
2016-10-15T13:52:40.989Z,255
2016-10-15T13:53:54.499Z,255
2016-10-15T13:55:07.050Z,250
2016-10-15T13:56:20.055Z,250
2016-10-15T13:57:33.535Z,240
2016-10-15T13:58:46.482Z,235
2016-10-15T13:59:59.399Z,230
2016-10-15T14:01:12.865Z,225
2016-10-15T14:02:25.950Z,230
2016-10-15T14:03:39.430Z,225
2016-10-15T14:04:51.820Z,240
2016-10-15T14:06:04.872Z,235
2016-10-15T14:07:17.774Z,240
2016-10-15T14:08:30.931Z,250
2016-10-15T14:09:44.557Z,255
2016-10-15T14:10:57.604Z,255
2016-10-15T14:12:10.637Z,255
2016-10-15T14:13:23.690Z,260
2016-10-15T14:14:36.196Z,275
2016-10-15T14:15:49.660Z,290
2016-10-15T14:17:03.267Z,325
2016-10-15T14:18:16.209Z,355
2016-10-15T14:19:29.161Z,410
2016-10-15T14:20:42.591Z,400
2016-10-15T14:21:56.023Z,400
2016-10-15T14:23:08.445Z,415
2016-10-15T14:24:21.835Z,470
2016-10-15T14:25:34.801Z,470
2016-10-15T14:26:47.771Z,440
2016-10-15T14:28:00.910Z,445
2016-10-15T14:29:12.784Z,425
2016-10-15T14:30:25.733Z,290
2016-10-15T14:31:38.625Z,460
2016-10-15T14:32:52.111Z,535
2016-10-15T14:34:05.166Z,580
2016-10-15T14:35:18.043Z,415
2016-10-15T14:36:30.426Z,395
2016-10-15T14:37:42.862Z,585
2016-10-15T14:38:55.372Z,605
2016-10-15T14:40:08.891Z,620
2016-10-15T14:41:20.746Z,645
2016-10-15T14:42:34.167Z,220
2016-10-15T14:43:47.689Z,225
2016-10-15T14:45:01.105Z,640
2016-10-15T14:46:13.981Z,655
2016-10-15T14:47:25.414Z,655
2016-10-15T14:48:39.034Z,645
2016-10-15T14:49:52.585Z,645
2016-10-15T14:51:06.032Z,640
2016-10-15T14:52:19.440Z,645
2016-10-15T14:53:32.005Z,670
2016-10-15T14:54:44.469Z,675
2016-10-15T14:55:57.394Z,680
2016-10-15T14:57:09.290Z,705
2016-10-15T14:58:21.166Z,655
2016-10-15T14:59:34.627Z,610
2016-10-15T15:00:48.202Z,605
2016-10-15T15:02:01.096Z,600
2016-10-15T15:03:13.482Z,595
2016-10-15T15:04:24.829Z,605
2016-10-15T15:05:37.186Z,615
2016-10-15T15:06:50.127Z,635
2016-10-15T15:08:03.077Z,650
2016-10-15T15:09:15.968Z,540
2016-10-15T15:10:28.913Z,625
2016-10-15T15:11:41.958Z,620
2016-10-15T15:12:55.432Z,630
2016-10-15T15:14:08.349Z,615
2016-10-15T15:15:21.226Z,570
2016-10-15T15:16:33.086Z,245
2016-10-15T15:17:46.533Z,285
2016-10-15T15:18:59.491Z,170
2016-10-15T15:20:11.919Z,175
2016-10-15T15:21:25.400Z,235
2016-10-15T15:22:38.944Z,245
2016-10-15T15:23:51.840Z,360
2016-10-15T15:25:04.741Z,305
2016-10-15T15:26:17.648Z,265
2016-10-15T15:27:30.563Z,350
2016-10-15T15:28:42.958Z,245
2016-10-15T15:29:56.385Z,535
2016-10-15T15:31:09.426Z,250
2016-10-15T15:32:22.366Z,415
2016-10-15T15:33:35.892Z,575
2016-10-15T15:34:48.257Z,560
2016-10-15T15:36:00.662Z,465
2016-10-15T15:37:12.554Z,230
2016-10-15T15:38:26.035Z,180
2016-10-15T15:39:38.961Z,165
2016-10-15T15:40:51.896Z,160
2016-10-15T15:42:03.770Z,165
2016-10-15T15:43:17.340Z,190
2016-10-15T15:44:30.399Z,215
2016-10-15T15:45:43.319Z,240
2016-10-15T15:46:55.733Z,220
2016-10-15T15:48:08.148Z,245
2016-10-15T15:49:20.529Z,350
2016-10-15T15:50:32.984Z,225
2016-10-15T15:51:45.359Z,230
2016-10-15T15:52:58.328Z,295
2016-10-15T15:54:10.708Z,245
2016-10-15T15:55:24.311Z,215
2016-10-15T15:56:37.708Z,185
2016-10-15T15:57:50.054Z,180
2016-10-15T15:59:02.914Z,190
2016-10-15T16:00:15.955Z,195
2016-10-15T16:01:28.924Z,200
2016-10-15T16:02:42.369Z,205
2016-10-15T16:03:55.201Z,195
2016-10-15T16:05:08.194Z,440
2016-10-15T16:06:20.692Z,150
2016-10-15T16:07:33.087Z,135
2016-10-15T16:08:46.018Z,130
2016-10-15T16:09:58.939Z,125
2016-10-15T16:11:11.848Z,120
2016-10-15T16:12:24.707Z,130
2016-10-15T16:13:37.610Z,145
2016-10-15T16:14:50.005Z,155
2016-10-15T16:16:03.001Z,175
2016-10-15T16:17:15.447Z,180
2016-10-15T16:18:27.881Z,215
2016-10-15T16:19:41.335Z,320
2016-10-15T16:20:53.252Z,235
2016-10-15T16:22:06.189Z,245
2016-10-15T16:23:19.129Z,315
2016-10-15T16:24:31.017Z,285
2016-10-15T16:25:44.464Z,455
2016-10-15T16:26:57.843Z,545
2016-10-15T16:28:11.364Z,390
2016-10-15T16:29:24.733Z,600
2016-10-15T16:30:38.156Z,610
2016-10-15T16:31:51.611Z,635
2016-10-15T16:33:05.070Z,565
2016-10-15T16:34:18.076Z,600
2016-10-15T16:35:31.007Z,430
2016-10-15T16:36:43.971Z,240
2016-10-15T16:37:56.387Z,235
2016-10-15T16:39:09.391Z,385
2016-10-15T16:40:22.300Z,205
2016-10-15T16:41:35.301Z,205
2016-10-15T16:42:48.257Z,235
2016-10-15T16:44:01.312Z,550
2016-10-15T16:45:14.772Z,515
2016-10-15T16:46:27.768Z,515
2016-10-15T16:47:41.273Z,160
2016-10-15T16:48:54.803Z,265
2016-10-15T16:50:07.311Z,180
2016-10-15T16:51:19.702Z,510
2016-10-15T16:52:32.697Z,160
2016-10-15T16:53:45.642Z,150
2016-10-15T16:54:59.097Z,175
2016-10-15T16:56:11.598Z,500
2016-10-15T16:57:24.039Z,180
2016-10-15T16:58:35.902Z,135
2016-10-15T16:59:48.824Z,120
2016-10-15T17:01:01.846Z,160
2016-10-15T17:02:14.746Z,190
2016-10-15T17:03:26.663Z,205
2016-10-15T17:04:38.511Z,140
2016-10-15T17:05:52.103Z,105
2016-10-15T17:07:05.641Z,100
2016-10-15T17:08:18.089Z,105
2016-10-15T17:09:30.465Z,105
2016-10-15T17:10:43.964Z,105
2016-10-15T17:11:56.556Z,115
2016-10-15T17:13:09.515Z,130
2016-10-15T17:14:21.901Z,140
2016-10-15T17:15:35.354Z,145
2016-10-15T17:16:48.311Z,145
2016-10-15T17:18:01.275Z,145
2016-10-15T17:19:13.624Z,145
2016-10-15T17:20:25.472Z,145
2016-10-15T17:21:38.387Z,140
2016-10-15T17:22:50.887Z,135
2016-10-15T17:24:03.823Z,135
2016-10-15T17:25:16.775Z,145
2016-10-15T17:26:29.706Z,150